Time;durP1;ratioP1;P1;durP2;ratioP2;P2;SDS_P1;SDS_P2;PMS_P1;PMS_P2;Temp;Humidity;BMP_temperature;BMP_pressure;BME280_temperature;BME280_humidity;BME280_pressure;Samples;Min_cycle;Max_cycle;Signal;HPM_P1;HPM_P2
2022/07/18 00:00:40;;;;;;;9.23;1.77;;;;;;;;;;5009823;28;20468;-69
2022/07/18 00:03:07;;;;;;;9.70;1.40;;;;;;;;;;5000007;28;20456;-67
2022/07/18 00:05:34;;;;;;;12.33;1.67;;;;;;;;;;5002735;28;20481;-68
2022/07/18 00:08:02;;;;;;;10.17;1.53;;;;;;;;;;4993401;28;20452;-68
2022/07/18 00:10:30;;;;;;;8.73;1.40;;;;;;;;;;5001401;28;20450;-67
2022/07/18 00:12:57;;;;;;;9.63;1.30;;;;;;;;;;5010384;28;20453;-68
2022/07/18 00:15:24;;;;;;;9.50;1.67;;;;;;;;;;5000711;28;20456;-68
2022/07/18 00:17:54;;;;;;;8.50;1.43;;;;;;;;;;4997996;28;20459;-67
2022/07/18 00:20:21;;;;;;;8.90;1.20;;;;;;;;;;5001097;28;20458;-68
2022/07/18 00:22:48;;;;;;;8.50;1.57;;;;;;;;;;4997843;28;20458;-68
2022/07/18 00:25:16;;;;;;;8.70;1.30;;;;;;;;;;5011731;28;20825;-68
2022/07/18 00:27:43;;;;;;;11.40;1.60;;;;;;;;;;4996863;28;20961;-68
2022/07/18 00:30:11;;;;;;;8.40;1.23;;;;;;;;;;5001654;28;20453;-68
2022/07/18 00:32:38;;;;;;;8.60;1.50;;;;;;;;;;4998321;28;20461;-69
2022/07/18 00:35:06;;;;;;;8.40;1.60;;;;;;;;;;4991672;28;20519;-68
2022/07/18 00:37:33;;;;;;;8.30;1.30;;;;;;;;;;4994202;28;20549;-68
2022/07/18 00:40:00;;;;;;;8.00;1.37;;;;;;;;;;5004226;28;20968;-68
2022/07/18 00:42:29;;;;;;;9.17;1.40;;;;;;;;;;5002128;28;20536;-68
2022/07/18 00:44:56;;;;;;;8.93;1.20;;;;;;;;;;5005611;28;20918;-69
2022/07/18 00:47:24;;;;;;;7.90;1.13;;;;;;;;;;5002889;28;20491;-69
2022/07/18 00:49:51;;;;;;;7.97;1.30;;;;;;;;;;5010372;28;20456;-68
2022/07/18 00:52:18;;;;;;;8.47;1.90;;;;;;;;;;5001264;28;20485;-68
2022/07/18 00:54:45;;;;;;;8.67;1.50;;;;;;;;;;5005627;28;20488;-68
2022/07/18 00:57:13;;;;;;;8.73;1.67;;;;;;;;;;5009524;28;20560;-68
2022/07/18 01:02:27;;;;;;;7.83;1.20;;;;;;;;;;5001876;28;20445;-68
2022/07/18 01:04:54;;;;;;;8.20;1.53;;;;;;;;;;5002258;28;20457;-68
2022/07/18 01:07:21;;;;;;;8.10;1.30;;;;;;;;;;4992503;28;20488;-68
2022/07/18 01:09:48;;;;;;;8.40;1.43;;;;;;;;;;4994916;28;20457;-68
2022/07/18 01:12:16;;;;;;;9.03;1.40;;;;;;;;;;5007266;28;20456;-68
2022/07/18 01:14:44;;;;;;;8.93;1.33;;;;;;;;;;5007486;28;20543;-69
2022/07/18 01:17:15;;;;;;;8.30;1.30;;;;;;;;;;4982351;28;20457;-69
2022/07/18 01:19:43;;;;;;;8.90;1.53;;;;;;;;;;5001665;28;20450;-68
2022/07/18 01:22:11;;;;;;;8.23;1.70;;;;;;;;;;4999047;28;20458;-68
2022/07/18 01:24:39;;;;;;;10.40;2.17;;;;;;;;;;4996611;28;20460;-68
2022/07/18 01:27:06;;;;;;;8.57;1.20;;;;;;;;;;5000927;28;20481;-69
2022/07/18 01:29:34;;;;;;;8.47;1.20;;;;;;;;;;4995127;28;20474;-69
2022/07/18 01:32:05;;;;;;;8.00;1.30;;;37.90;1.00;;;;;;5003548;28;20449;-68
2022/07/18 01:34:32;;;;;;;8.00;1.30;;;;;;;;;;4999833;28;20450;-68
2022/07/18 01:36:59;;;;;;;8.13;1.50;;;;;;;;;;4991476;28;20471;-68
2022/07/18 01:39:28;;;;;;;7.40;1.10;;;;;;;;;;4994761;28;20454;-68
2022/07/18 01:41:58;;;;;;;8.07;1.67;;;;;;;;;;4998434;28;20500;-68
2022/07/18 01:44:25;;;;;;;8.00;1.33;;;;;;;;;;5007841;28;20454;-69
2022/07/18 01:46:52;;;;;;;9.93;1.50;;;;;;;;;;5000627;28;20580;-68
2022/07/18 01:49:19;;;;;;;8.17;1.07;;;;;;;;;;5002262;28;20502;-68
2022/07/18 01:51:47;;;;;;;7.70;1.30;;;;;;;;;;5003462;28;20448;-69
2022/07/18 01:54:14;;;;;;;9.40;1.60;;;;;;;;;;4993354;28;20457;-69
2022/07/18 01:56:43;;;;;;;7.73;1.50;;;;;;;;;;5005267;28;20496;-68
2022/07/18 01:59:10;;;;;;;9.23;1.40;;;;;;;;;;4998655;28;20814;-68
2022/07/18 02:01:37;;;;;;;7.80;1.10;;;;;;;;;;5003590;28;20452;-68
2022/07/18 02:04:04;;;;;;;8.70;1.53;;;;;;;;;;4999821;28;20451;-68
2022/07/18 02:06:32;;;;;;;8.57;1.40;;;;;;;;;;4996510;28;20476;-69
2022/07/18 02:08:59;;;;;;;8.63;1.63;;;;;;;;;;5003119;28;20455;-69
2022/07/18 02:11:26;;;;;;;7.40;1.07;;;;;;;;;;5001338;28;20815;-68
2022/07/18 02:13:54;;;;;;;7.87;1.30;;;;;;;;;;5003865;28;20534;-69
2022/07/18 02:16:22;;;;;;;8.23;1.40;;;;;;;;;;5014083;28;20480;-68
2022/07/18 02:18:49;;;;;;;7.47;1.23;;;;;;;;;;5004395;28;20450;-69
2022/07/18 02:21:16;;;;;;;8.47;1.17;;;;;;;;;;4999345;28;20457;-68
2022/07/18 02:23:44;;;;;;;7.43;1.17;;;;;;;;;;5000165;28;20951;-68
2022/07/18 02:26:12;;;;;;;8.43;1.40;;;;;;;;;;4999750;28;20466;-68
2022/07/18 02:28:39;;;;;;;8.90;1.30;;;;;;;;;;4999407;28;20459;-68
2022/07/18 02:31:08;;;;;;;7.40;1.20;;;;;;;;;;5000333;28;20448;-68
2022/07/18 02:33:35;;;;;;;7.47;1.20;;;;;;;;;;5000789;28;20453;-68
2022/07/18 02:36:03;;;;;;;7.53;1.33;;;;;;;;;;5004900;28;20816;-68
2022/07/18 02:38:30;;;;;;;7.10;1.30;;;;;;;;;;5006382;28;20481;-68
2022/07/18 02:40:57;;;;;;;7.30;1.27;;;;;;;;;;4997189;28;20540;-68
2022/07/18 02:43:24;;;;;;;8.70;1.40;;;;;;;;;;5007448;28;20463;-68
2022/07/18 02:45:51;;;;;;;7.40;1.20;;;;;;;;;;5003373;28;20476;-68
2022/07/18 02:48:20;;;;;;;7.43;1.30;;;;;;;;;;5010048;28;20488;-68
2022/07/18 02:50:47;;;;;;;7.50;1.10;;;;;;;;;;4999540;28;20811;-68
2022/07/18 02:53:14;;;;;;;7.00;1.07;;;;;;;;;;5011368;28;20876;-68
2022/07/18 02:55:41;;;;;;;7.40;1.00;;;;;;;;;;4998118;28;20546;-68
2022/07/18 02:58:08;;;;;;;7.90;1.50;;;;;;;;;;4995644;28;20459;-69
2022/07/18 03:00:35;;;;;;;8.50;1.10;;;;;;;;;;5008030;28;20453;-68
2022/07/18 03:03:03;;;;;;;7.50;1.13;;;;;;;;;;5012704;28;20462;-68
2022/07/18 03:05:32;;;;;;;7.30;1.13;;;;;;;;;;5005003;28;20450;-68
2022/07/18 03:07:59;;;;;;;7.40;1.20;;;;;;;;;;4995189;28;20563;-68
2022/07/18 03:10:26;;;;;;;7.63;1.20;;;;;;;;;;4996005;28;20453;-68
2022/07/18 03:12:53;;;;;;;10.17;2.13;;;;;;;;;;4994998;28;20445;-68
2022/07/18 03:15:20;;;;;;;8.80;2.10;;;;;;;;;;5013228;28;20464;-69
2022/07/18 03:17:47;;;;;;;7.10;1.20;;;;;;;;;;5009210;28;20441;-69
2022/07/18 03:20:14;;;;;;;7.80;1.40;;;;;;;;;;5004755;28;20461;-67
2022/07/18 03:22:43;;;;;;;7.63;1.50;;;;;;;;;;4997033;28;20456;-69
2022/07/18 03:25:11;;;;;;;7.97;1.47;;;;;;;;;;4988007;28;20458;-69
2022/07/18 03:27:38;;;;;;;8.37;1.13;;;;;;;;;;5005333;28;20583;-68
2022/07/18 03:30:05;;;;;;;7.60;1.33;;;;;;;;;;4996288;28;20476;-69
2022/07/18 03:32:32;;;;;;;7.30;1.23;;;;;;;;;;4999424;28;20448;-68
2022/07/18 03:34:59;;;;;;;8.43;1.70;;;;;;;;;;4998493;28;20523;-68
2022/07/18 03:37:27;;;;;;;8.00;1.53;;;;;;;;;;4992864;28;20461;-68
2022/07/18 03:39:55;;;;;;;8.07;1.40;;;;;;;;;;4998099;28;20539;-68
2022/07/18 03:42:22;;;;;;;7.33;1.40;;;;;;;;;;4997533;28;20459;-68
2022/07/18 03:44:49;;;;;;;9.17;1.17;;;;;;;;;;4999799;28;20830;-68
2022/07/18 03:47:16;;;;;;;7.53;1.47;;;;;;;;;;4999817;28;20488;-68
2022/07/18 03:49:43;;;;;;;7.60;1.33;;;;;;;;;;5001130;28;20449;-68
2022/07/18 03:52:11;;;;;;;8.20;1.37;;;;;;;;;;4998879;28;20462;-68
2022/07/18 03:54:38;;;;;;;7.57;0.97;;;;;;;;;;5005902;28;20538;-67
2022/07/18 03:57:06;;;;;;;7.53;1.47;;;;;;;;;;5002320;28;20834;-68
2022/07/18 03:59:35;;;;;;;7.77;1.47;;;;;;;;;;4997402;28;20863;-68
2022/07/18 04:02:02;;;;;;;7.47;1.30;;;;;;;;;;4994425;28;20465;-68
2022/07/18 04:04:30;;;;;;;7.97;1.47;;;;;;;;;;5003674;28;20944;-68
2022/07/18 04:06:59;;;;;;;8.33;1.23;;;;;;;;;;5002971;28;20483;-68
2022/07/18 04:09:26;;;;;;;8.63;1.60;;;;;;;;;;5007594;28;20456;-68
2022/07/18 04:11:53;;;;;;;7.80;1.13;;;;;;;;;;4999014;28;20454;-68
2022/07/18 04:14:22;;;;;;;9.50;1.43;;;;;;;;;;5000454;28;20461;-67
2022/07/18 04:16:49;;;;;;;8.03;0.90;;;;;;;;;;5007567;28;20503;-68
2022/07/18 04:19:17;;;;;;;7.50;1.37;;;;;;;;;;5011805;28;20452;-68
2022/07/18 04:21:44;;;;;;;7.70;1.60;;;;;;;;;;4986249;28;20803;-68
2022/07/18 04:24:11;;;;;;;8.67;1.27;;;;;;;;;;4993422;28;20450;-68
2022/07/18 04:26:39;;;;;;;7.90;1.40;;;;;;;;;;5010166;28;20547;-68
2022/07/18 04:29:06;;;;;;;8.83;1.20;;;;;;;;;;4992259;28;20460;-80
2022/07/18 04:31:35;;;;;;;7.47;1.20;;;;;;;;;;5011537;28;20462;-70
2022/07/18 04:34:02;;;;;;;7.93;1.47;;;;;;;;;;4999171;28;20457;-67
2022/07/18 04:36:29;;;;;;;8.10;1.80;;;;;;;;;;5000740;28;20802;-68
2022/07/18 04:38:56;;;;;;;7.60;1.60;;;;;;;;;;4995766;28;20482;-68
2022/07/18 04:41:24;;;;;;;9.10;1.73;;;;;;;;;;5011447;28;20445;-68
2022/07/18 04:43:53;;;;;;;7.90;1.63;;;;;;;;;;4995914;28;20487;-68
2022/07/18 04:46:20;;;;;;;7.87;1.40;;;;;;;;;;5001843;28;20954;-69
2022/07/18 04:48:49;;;;;;;8.20;1.60;;;;;;;;;;4998898;28;20836;-72
2022/07/18 04:51:16;;;;;;;8.30;1.20;;;;;;;;;;5000187;28;20445;-69
2022/07/18 04:53:43;;;;;;;9.00;1.80;;;;;;;;;;4997483;28;20447;-70
2022/07/18 04:56:10;;;;;;;8.13;1.70;;;;;;;;;;5011534;28;20483;-68
2022/07/18 04:58:37;;;;;;;8.17;1.40;;;;;;;;;;4997094;28;20543;-68
2022/07/18 05:01:05;;;;;;;8.17;1.53;;;;;;;;;;5010850;28;20499;-69
2022/07/18 05:03:32;;;;;;;8.57;1.50;;;;;;;;;;4992938;28;20560;-72
2022/07/18 05:06:00;;;;;;;8.93;1.70;;;;;;;;;;4992828;28;20936;-70
2022/07/18 05:08:27;;;;;;;7.40;1.33;;;;;;;;;;5004814;28;20587;-71
2022/07/18 05:10:55;;;;;;;8.90;1.20;;;;;;;;;;4995821;28;20448;-70
2022/07/18 05:13:22;;;;;;;8.60;1.50;;;;;;;;;;5009392;28;20463;-69
2022/07/18 05:15:49;;;;;;;10.23;2.03;;;;;;;;;;5008937;28;20881;-72
2022/07/18 05:18:16;;;;;;;9.00;2.07;;;;;;;;;;5010905;28;20452;-72
2022/07/18 05:20:43;;;;;;;8.30;1.70;;;;;;;;;;5010521;28;20462;-72
2022/07/18 05:23:12;;;;;;;7.40;1.40;;;;;;;;;;5011503;28;20451;-73
2022/07/18 05:25:39;;;;;;;8.00;1.97;;;;;;;;;;5010715;28;20565;-73
2022/07/18 05:28:07;;;;;;;7.93;1.57;;;;;;;;;;5008023;28;20477;-73
2022/07/18 05:30:34;;;;;;;8.57;1.63;;;;;;;;;;5004578;28;21008;-74
2022/07/18 05:33:02;;;;;;;9.57;1.50;;;;;;;;;;5004586;28;20446;-72
2022/07/18 05:35:30;;;;;;;7.57;1.37;;;;;;;;;;5004329;28;20454;-73
2022/07/18 05:37:57;;;;;;;8.37;1.90;;;;;;;;;;5011798;28;20531;-73
2022/07/18 05:40:27;;;;;;;7.43;1.37;;;;;;;;;;5010522;28;20482;-72
2022/07/18 05:42:54;;;;;;;8.43;1.70;;;;;;;;;;5014552;28;20440;-72
2022/07/18 05:45:21;;;;;;;9.50;1.47;;;;;;;;;;5014721;28;20465;-73
2022/07/18 05:47:48;;;;;;;9.57;1.60;;;;;;;;;;5014230;28;20991;-72
2022/07/18 05:50:16;;;;;;;14.43;1.90;;;;;;;;;;5014783;28;20459;-72
2022/07/18 05:52:43;;;;;;;8.67;2.03;;;;;;;;;;5014698;28;20540;-72
2022/07/18 05:55:11;;;;;;;8.50;2.00;;;;;;;;;;5015171;28;20648;-72
2022/07/18 05:57:39;;;;;;;9.60;1.67;;;;;;;;;;5014137;28;20834;-72
2022/07/18 06:00:08;;;;;;;8.13;1.77;;;;;;;;;;5011948;28;20455;-72
2022/07/18 06:02:35;;;;;;;8.30;1.77;;;;;;;;;;5014750;28;20539;-73
2022/07/18 06:05:03;;;;;;;8.83;2.00;;;;;;;;;;5012307;28;20857;-72
2022/07/18 06:07:30;;;;;;;8.10;1.47;;;;;;;;;;5008763;28;20484;-69
2022/07/18 06:09:57;;;;;;;8.30;2.03;;;;;;;;;;5029676;28;20482;-72
2022/07/18 06:12:24;;;;;;;7.57;1.50;;;;;;;;;;5032951;28;20507;-73
2022/07/18 06:14:53;;;;;;;10.67;1.87;;;;;;;;;;5030783;28;20451;-73
2022/07/18 06:17:20;;;;;;;8.50;2.00;;;;;;;;;;5029758;28;20548;-73
2022/07/18 06:19:47;;;;;;;9.60;1.40;;;;;;;;;;5022763;28;20534;-73
2022/07/18 06:22:14;;;;;;;12.33;2.43;;;;;;;;;;5015456;28;20448;-72
2022/07/18 06:24:42;;;;;;;8.63;2.03;;;;;;;;;;5013914;28;20445;-73
2022/07/18 06:27:09;;;;;;;8.70;1.90;;;;;;;;;;5014491;28;20543;-73
2022/07/18 06:29:36;;;;;;;8.90;2.20;;;;;;;;;;5003623;28;20448;-72
2022/07/18 06:32:05;;;;;;;9.40;1.83;;;;;;;;;;5014246;28;20464;-73
2022/07/18 06:34:32;;;;;;;12.90;2.00;;;;;;;;;;5013974;28;20540;-72
2022/07/18 06:36:59;;;;;;;8.30;2.20;;;;;;;;;;5012108;28;20463;-72
2022/07/18 06:39:26;;;;;;;8.30;1.90;;;;;;;;;;5013929;28;20453;-73
2022/07/18 06:41:53;;;;;;;8.87;1.70;;;;;;;;;;5013449;28;20458;-73
2022/07/18 06:44:20;;;;;;;9.53;2.07;;;;;;;;;;5014128;28;20958;-73
2022/07/18 06:46:47;;;;;;;9.23;2.17;;;;;;;;;;5012941;28;20458;-73
2022/07/18 06:49:16;;;;;;;9.67;2.10;;;;;;;;;;5013653;28;20919;-73
2022/07/18 06:51:43;;;;;;;9.40;1.77;;;;;;;;;;5013323;28;20463;-74
2022/07/18 06:54:10;;;;;;;12.93;2.67;;;;;;;;;;5013734;28;20453;-73
2022/07/18 06:56:38;;;;;;;9.93;2.60;;;;;;;;;;5013355;28;20488;-72
2022/07/18 06:59:05;;;;;;;9.63;1.93;;;;;;;;;;5010350;28;20987;-73
2022/07/18 07:01:32;;;;;;;11.93;2.97;;;;;;;;;;5012819;28;21039;-72
2022/07/18 07:03:59;;;;;;;9.13;1.73;;;;;;;;;;5013510;28;20800;-73
2022/07/18 07:06:28;;;;;;;9.93;2.10;;;;;;;;;;5013733;28;20476;-73
2022/07/18 07:08:55;;;;;;;10.13;1.90;;;;;;;;;;5013217;28;20522;-73
2022/07/18 07:11:22;;;;;;;8.77;1.60;;;;;;;;;;5013486;28;20445;-73
2022/07/18 07:13:50;;;;;;;9.20;1.87;;;;;;;;;;5013000;28;20746;-73
2022/07/18 07:16:17;;;;;;;8.47;1.57;;;;;;;;;;5013255;28;20451;-74
2022/07/18 07:18:44;;;;;;;9.80;1.83;;;;;;;;;;5012610;28;20444;-72
2022/07/18 07:21:11;;;;;;;10.03;2.00;;;;;;;;;;5013287;28;20467;-73
2022/07/18 07:23:40;;;;;;;8.50;1.70;;;;;;;;;;5012848;28;20444;-73
2022/07/18 07:26:07;;;;;;;9.67;2.20;;;;;;;;;;5013115;28;20462;-72
2022/07/18 07:28:34;;;;;;;9.17;2.00;;;;;;;;;;5005896;28;20576;-73
2022/07/18 07:31:02;;;;;;;9.47;1.90;;;;;;;;;;5009711;28;20899;-74
2022/07/18 07:33:29;;;;;;;9.57;1.67;;;;;;;;;;5002487;28;20936;-72
2022/07/18 07:35:57;;;;;;;9.40;1.97;;;;;;;;;;5004325;28;20535;-72
2022/07/18 07:38:27;;;;;;;8.50;1.63;;;;;;;;;;5005075;28;20476;-73
2022/07/18 07:40:56;;;;;;;9.30;2.17;;;;;;;;;;5012254;28;20779;-72
2022/07/18 07:43:24;;;;;;;9.30;1.80;;;;;;;;;;5013117;28;20542;-73
2022/07/18 07:45:52;;;;;;;9.63;1.63;;;;;;;;;;5012302;28;20456;-73
2022/07/18 07:48:20;;;;;;;8.60;1.80;;;;;;;;;;5012910;28;20570;-73
2022/07/18 07:50:47;;;;;;;9.93;1.60;;;;;;;;;;5012021;28;20457;-73
2022/07/18 07:53:14;;;;;;;9.17;1.67;;;;;;;;;;5012365;28;20455;-72
2022/07/18 07:55:41;;;;;;;8.93;1.47;;;;;;;;;;4999651;28;20479;-73
2022/07/18 07:58:10;;;;;;;8.63;1.67;;;;;;;;;;5009506;28;20461;-72
2022/07/18 08:00:37;;;;;;;8.60;1.60;;;;;;;;;;5011493;28;20544;-72
2022/07/18 08:03:05;;;;;;;9.30;1.90;;;;;;;;;;5016880;28;20453;-74
2022/07/18 08:05:34;;;;;;;9.00;1.83;;;;;;;;;;5014893;28;20531;-73
2022/07/18 08:08:01;;;;;;;10.03;1.80;;;;;;;;;;5021425;28;20591;-71
2022/07/18 08:10:29;;;;;;;9.20;2.00;;;;;;;;;;5019887;28;20450;-73
2022/07/18 08:12:56;;;;;;;10.57;2.50;;;;;;;;;;5022719;28;20471;-72
2022/07/18 08:15:25;;;;;;;9.97;1.80;;;;;;;;;;5020961;28;20545;-74
2022/07/18 08:17:52;;;;;;;9.03;1.87;;;;;;;;;;5012419;28;20540;-74
2022/07/18 08:20:20;;;;;;;9.30;1.97;;;;;;;;;;5012565;28;20944;-72
2022/07/18 08:22:54;;;;;;;11.13;1.70;;;;;;;;;;5012188;28;20467;-73
2022/07/18 08:25:21;;;;;;;10.10;2.10;;;;;;;;;;5012233;28;20475;-73
2022/07/18 08:27:48;;;;;;;9.30;2.07;;;;;;;;;;5011026;28;20451;-73
2022/07/18 08:30:15;;;;;;;9.10;1.87;;;;;;;;;;5003689;28;20458;-73
2022/07/18 08:32:44;;;;;;;9.10;2.17;;;;;;;;;;5011700;28;20897;-73
2022/07/18 08:35:11;;;;;;;9.30;1.60;;;;;;;;;;5011338;28;20460;-73
2022/07/18 08:37:38;;;;;;;9.80;1.90;;;;;;;;;;4997239;28;20498;-73
2022/07/18 08:40:06;;;;;;;9.30;2.37;;;;;;;;;;5011896;28;20447;-73
2022/07/18 08:42:34;;;;;;;10.73;3.43;;;;;;;;;;5011592;28;20452;-73
2022/07/18 08:45:02;;;;;;;9.10;2.07;;;;;;;;;;5011907;28;20441;-73
2022/07/18 08:47:31;;;;;;;9.83;2.13;;;;;;;;;;5011602;28;20936;-70
2022/07/18 08:50:00;;;;;;;10.37;2.63;;;;;;;;;;5011538;28;20488;-73
2022/07/18 08:52:28;;;;;;;9.87;2.50;;;;;;;;;;5011950;28;20555;-73
2022/07/18 08:54:55;;;;;;;9.20;2.10;;;;;;;;;;5011809;28;20467;-74
2022/07/18 08:57:23;;;;;;;9.73;2.03;;;;;;;;;;5011397;28;20504;-73
2022/07/18 08:59:50;;;;;;;9.30;2.40;;;;;;;;;;5007655;28;20495;-74
2022/07/18 09:02:17;;;;;;;9.37;2.40;;;;;;;;;;5011645;28;20452;-73
2022/07/18 09:04:45;;;;;;;11.57;2.23;;;;;;;;;;5010864;28;20939;-73
2022/07/18 09:07:25;;;;;;;9.20;2.30;;;;;;;;;;5011706;28;20453;-73
2022/07/18 09:09:57;;;;;;;9.23;2.10;;;;;;;;;;5010530;28;21082;-72
2022/07/18 09:12:25;;;;;;;9.30;2.03;;;;;;;;;;5011503;28;20526;-75
2022/07/18 09:14:52;;;;;;;8.90;2.07;;;;;;;;;;5010805;28;20527;-73
2022/07/18 09:17:20;;;;;;;9.87;2.00;;;;;;;;;;5010532;28;20808;-73
2022/07/18 09:19:58;;;;;;;9.10;2.10;;;;;;;;;;5010597;28;20448;-73
2022/07/18 09:22:27;;;;;;;9.60;2.43;;;;;;;;;;5011707;28;20478;-74
2022/07/18 09:24:58;;;;;;;8.60;1.80;;;;;;;;;;5010830;28;20455;-74
2022/07/18 09:27:26;;;;;;;8.80;1.97;;;;;;;;;;5011515;28;20811;-74
2022/07/18 09:30:08;;;;;;;9.20;2.00;;;;;;;;;;4992579;28;20992;-74
2022/07/18 09:32:35;;;;;;;10.33;1.93;;;;;;;;;;5007822;28;20439;-73
2022/07/18 09:35:05;;;;;;;9.07;2.10;;;;;;;;;;5011182;28;21014;-73
2022/07/18 09:37:34;;;;;;;9.40;2.20;;;;;;;;;;4994249;28;20864;-74
2022/07/18 09:40:15;;;;;;;9.10;1.83;;;;;;;;;;4999879;28;20452;-73
2022/07/18 09:42:42;;;;;;;8.60;1.90;;;;;;;;;;4997657;28;20456;-73
2022/07/18 09:45:10;;;;;;;9.60;2.23;;;;;;;;;;5011244;28;20535;-73
2022/07/18 09:47:49;;;;;;;8.57;1.97;;;;;;;;;;5010412;28;20456;-73
2022/07/18 09:50:21;;;;;;;9.90;2.10;;;;;;;;;;5010644;28;20476;-74
2022/07/18 09:52:58;;;;;;;9.27;1.93;;;;;;;;;;5010905;28;20448;-74
2022/07/18 09:55:25;;;;;;;9.40;2.30;;;;;;;;;;5010959;28;20463;-73
2022/07/18 09:57:59;;;;;;;8.30;1.70;;;;;;;;;;5009594;28;20462;-73
2022/07/18 10:00:26;;;;;;;9.00;1.73;;;;;;;;;;5009836;28;20443;-74
2022/07/18 10:02:54;;;;;;;9.30;1.90;;;;;;;;;;5010369;28;20456;-73
2022/07/18 10:05:21;;;;;;;8.80;2.07;;;;;;;;;;5010927;28;20462;-74
2022/07/18 10:07:48;;;;;;;8.60;1.77;;;;;;;;;;5010658;28;20452;-73
2022/07/18 10:10:17;;;;;;;8.80;2.00;;;;;;;;;;5010774;28;20848;-73
2022/07/18 10:12:44;;;;;;;8.73;2.27;;;;;;;;;;5010352;28;20458;-73
2022/07/18 10:15:12;;;;;;;8.53;1.97;;;;;;;;;;5011259;28;20459;-74
2022/07/18 10:17:39;;;;;;;9.30;1.80;;;;;;;;;;5010369;28;20452;-73
2022/07/18 10:20:07;;;;;;;8.37;2.00;;;;;;;;;;5010640;28;20455;-74
2022/07/18 10:22:37;;;;;;;7.63;1.50;;;;;;;;;;5010429;28;20539;-74
2022/07/18 10:25:05;;;;;;;8.40;2.13;;;;;;;;;;5011161;28;20447;-74
2022/07/18 10:27:47;;;;;;;8.40;2.10;;;;;;;;;;4998221;28;20955;-74
2022/07/18 10:30:19;;;;;;;8.37;1.70;;;;;;;;;;4995670;28;20578;-75
2022/07/18 10:32:48;;;;;;;8.43;2.10;;;;;;;;;;5013828;28;20443;-74
2022/07/18 10:35:17;;;;;;;9.00;2.00;;;;;;;;;;5013047;28;20459;-73
2022/07/18 10:37:44;;;;;;;8.17;1.63;;;;;;;;;;5000516;28;20455;-74
2022/07/18 10:40:25;;;;;;;8.10;2.00;;;;;;;;;;5013843;28;20462;-75
2022/07/18 10:43:11;;;;;;;7.83;1.70;;;;;;;;;;4991842;28;20447;-75
2022/07/18 10:45:45;;;;;;;8.63;1.87;;;;;;;;;;5016292;28;20524;-73
2022/07/18 10:48:36;;;;;;;8.10;1.90;;;;;;;;;;5017213;28;20514;-74
2022/07/18 10:51:07;;;;;;;8.67;2.13;;;;;;;;;;4989493;28;20493;-76
2022/07/18 10:53:52;;;;;;;7.50;1.50;;;;;;;;;;5024620;28;20440;-73
2022/07/18 10:56:20;;;;;;;7.90;1.80;;;;;;;;;;5027869;28;20578;-74
2022/07/18 10:58:47;;;;;;;7.77;1.90;;;;;;;;;;5026672;28;20483;-74
2022/07/18 11:01:17;;;;;;;7.37;1.43;;;;;;;;;;5031053;28;20463;-75
2022/07/18 11:03:45;;;;;;;7.50;1.57;;;;;;;;;;5005881;28;20453;-74
2022/07/18 11:06:13;;;;;;;7.50;1.30;;;;;;;;;;5032257;28;20474;-74
2022/07/18 11:08:40;;;;;;;7.50;1.47;;;;;;;;;;5020370;28;20452;-74
2022/07/18 11:11:14;;;;;;;7.10;1.23;;;;;;;;;;5034274;28;20512;-74
2022/07/18 11:13:43;;;;;;;7.83;1.47;;;;;;;;;;5033426;28;20522;-74
2022/07/18 11:16:11;;;;;;;7.50;1.30;;;;;;;;;;5033585;28;20455;-73
2022/07/18 11:18:53;;;;;;;7.60;1.40;;;;;;;;;;5032793;28;20542;-73
2022/07/18 11:21:22;;;;;;;7.70;1.50;;;;;;;;;;5015199;28;20491;-74
2022/07/18 11:23:51;;;;;;;7.30;1.30;;;;;;;;;;5017899;28;20675;-73
2022/07/18 11:26:19;;;;;;;7.60;1.43;;;;;;;;;;5016655;28;20480;-74
2022/07/18 11:28:48;;;;;;;7.30;1.10;;;;;;;;;;5006180;28;20829;-74
2022/07/18 11:31:16;;;;;;;7.60;1.30;;;;;;;;;;5014996;28;20439;-74
2022/07/18 11:33:46;;;;;;;7.50;1.27;;;;;;;;;;5012950;28;20451;-74
2022/07/18 11:36:14;;;;;;;7.17;1.20;;;;;;;;;;5004422;28;20446;-74
2022/07/18 11:38:48;;;;;;;7.70;1.40;;;;;;;;;;5006019;28;20452;-73
2022/07/18 11:41:15;;;;;;;7.20;1.33;;;;;;;;;;5013322;28;20443;-74
2022/07/18 11:43:45;;;;;;;8.20;1.33;;;;;;;;;;5012269;28;20538;-74
2022/07/18 11:46:13;;;;;;;7.90;1.60;;;;;;;;;;5013357;28;20452;-74
2022/07/18 11:48:40;;;;;;;7.73;1.50;;;;;;;;;;4999192;28;20455;-74
2022/07/18 11:51:10;;;;;;;7.50;1.30;;;;;;;;;;5013435;28;20225;-74
2022/07/18 11:53:37;;;;;;;8.10;1.50;;;;;;;;;;5013156;28;20205;-73
2022/07/18 11:56:06;;;;;;;7.43;1.50;;;;;;;;;;5013111;28;20578;-76
2022/07/18 11:58:37;;;;;;;7.70;1.50;;;;;;;;;;5001435;28;20214;-75
2022/07/18 12:01:05;;;;;;;8.47;1.43;;;;;;;;;;4997031;28;20672;-74
2022/07/18 12:03:35;;;;;;;7.60;1.30;;;;;;;;;;5012100;28;20308;-74
2022/07/18 12:06:10;;;;;;;7.47;1.33;;;;;;;;;;5012896;28;20235;-74
2022/07/18 12:08:39;;;;;;;7.40;1.20;;;;;;;;;;4987290;28;20255;-73
2022/07/18 12:11:09;;;;;;;8.00;1.57;;;;;;;;;;5013526;28;20286;-73
2022/07/18 12:14:00;;;;;;;7.33;1.03;;;;;;;;;;5018322;28;20268;-75
2022/07/18 12:16:31;;;;;;;7.93;1.30;;;;;;;;;;5000110;28;20211;-75
2022/07/18 12:19:00;;;;;;;7.70;1.45;;;;;;;;;;5004189;28;20225;-74
2022/07/18 12:21:40;;;;;;;7.80;1.43;;;;;;;;;;5022566;28;20265;-75
2022/07/18 12:24:18;;;;;;;7.90;1.60;;;;;;;;;;5022747;28;20197;-73
2022/07/18 12:26:47;;;;;;;8.00;1.50;;;;;;;;;;5016986;28;20201;-74
2022/07/18 12:29:14;;;;;;;8.00;1.43;;;;;;;;;;5002970;28;20201;-75
2022/07/18 12:31:42;;;;;;;8.00;1.50;;;;;;;;;;5012143;28;20310;-74
2022/07/18 12:34:10;;;;;;;7.47;1.30;;;;;;;;;;5012167;28;20283;-74
2022/07/18 12:36:51;;;;;;;7.77;1.30;;;;;;;;;;4999057;28;20725;-73
2022/07/18 12:39:26;;;;;;;8.30;1.30;;;;;;;;;;5010599;28;20652;-74
2022/07/18 12:41:54;;;;;;;8.60;1.40;;;;;;;;;;5011281;28;20197;-74
2022/07/18 12:44:21;;;;;;;8.20;1.40;;;;;;;;;;5012014;28;20292;-75
2022/07/18 12:46:49;;;;;;;8.87;1.50;;;;;;;;;;5011334;28;20222;-74
2022/07/18 12:49:16;;;;;;;8.37;1.77;;;;;;;;;;5011475;28;20207;-74
2022/07/18 12:51:43;;;;;;;7.70;1.80;;;;;;;;;;5011807;28;20598;-75
2022/07/18 12:54:10;;;;;;;8.05;1.63;;;;;;;;;;5012298;28;20201;-74
2022/07/18 12:56:37;;;;;;;7.53;1.40;;;;;;;;;;5011208;28;20324;-74
2022/07/18 12:59:06;;;;;;;7.45;1.20;;;;;;;;;;5001279;28;20216;-75
2022/07/18 13:01:33;;;;;;;8.10;1.60;;;;;;;;;;5006777;28;20570;-74
2022/07/18 13:04:01;;;;;;;8.02;1.65;;;;;;;;;;5012004;28;20201;-74
2022/07/18 13:06:28;;;;;;;7.88;1.60;;;;;;;;;;4998772;28;20209;-74
2022/07/18 13:08:55;;;;;;;8.13;1.70;;;;;;;;;;5002565;28;20736;-75
2022/07/18 13:11:22;;;;;;;7.87;1.57;;;;;;;;;;5007348;28;20252;-74
2022/07/18 13:13:49;;;;;;;8.00;1.77;;;;;;;;;;5011305;28;20502;-74
2022/07/18 13:16:18;;;;;;;9.63;1.83;;;;;;;;;;5011292;28;20210;-73
2022/07/18 13:18:45;;;;;;;8.60;1.60;;;;;;;;;;5010613;28;20227;-71
2022/07/18 13:21:12;;;;;;;8.90;1.63;;;;;;;;;;5011420;28;20228;-72
2022/07/18 13:23:40;;;;;;;7.78;1.50;;;;;;;;;;5010809;28;20205;-72
2022/07/18 13:26:07;;;;;;;7.72;1.60;;;;;;;;;;5011555;28;20311;-74
2022/07/18 13:28:34;;;;;;;7.95;1.73;;;;;;;;;;5003658;28;20240;-72
2022/07/18 13:31:01;;;;;;;8.00;1.60;;;;;;;;;;5007735;28;20298;-71
2022/07/18 13:33:30;;;;;;;7.78;1.75;;;;;;;;;;5011253;28;20678;-72
2022/07/18 13:35:57;;;;;;;7.57;1.40;;;;;;;;;;5004953;28;20201;-72
2022/07/18 13:38:24;;;;;;;8.05;1.80;;;;;;;;;;5003026;28;20238;-72
2022/07/18 13:40:52;;;;;;;8.15;1.75;;;;;;;;;;5011066;28;20209;-73
2022/07/18 13:43:19;;;;;;;8.05;1.77;;;;;;;;;;5000116;28;20205;-73
2022/07/18 13:45:46;;;;;;;8.00;1.30;;;;;;;;;;5009739;28;20209;-73
2022/07/18 13:48:13;;;;;;;7.80;1.63;;;;;;;;;;5010807;28;20211;-73
2022/07/18 13:50:42;;;;;;;7.90;1.50;;;;;;;;;;5010240;28;20223;-73
2022/07/18 13:53:09;;;;;;;8.20;1.75;;;;;;;;;;5010947;28;20231;-73
2022/07/18 13:55:36;;;;;;;7.25;1.30;;;;;;;;;;5010317;28;20288;-73
2022/07/18 13:58:03;;;;;;;7.43;1.20;;;;;;;;;;5008076;28;20201;-72
2022/07/18 14:00:31;;;;;;;8.75;1.85;;;;;;;;;;4984775;28;20292;-72
2022/07/18 14:02:58;;;;;;;8.07;1.90;;;;;;;;;;5012897;28;20209;-72
2022/07/18 14:05:25;;;;;;;7.88;1.55;;;;;;;;;;5014861;28;20201;-72
2022/07/18 14:07:54;;;;;;;7.65;1.63;;;;;;;;;;5013952;28;20201;-73
2022/07/18 14:10:21;;;;;;;7.70;1.70;;;;;;;;;;5014255;28;20239;-73
2022/07/18 14:12:48;;;;;;;7.68;1.48;;;;;;;;;;5014091;28;20299;-74
2022/07/18 14:15:15;;;;;;;7.75;1.70;;;;;;;;;;5014494;28;20201;-73
2022/07/18 14:17:43;;;;;;;7.65;1.50;;;;;;;;;;5013687;28;20228;-73
2022/07/18 14:20:11;;;;;;;7.70;1.58;;;;;;;;;;5013882;28;20259;-73
2022/07/18 14:22:39;;;;;;;7.88;1.92;;;;;;;;;;5013650;28;20647;-73
2022/07/18 14:25:09;;;;;;;7.90;1.60;;;;;;;;;;5005783;28;20606;-73
2022/07/18 14:27:36;;;;;;;9.45;2.30;;;;;;;;;;5009739;28;20216;-73
2022/07/18 14:30:03;;;;;;;7.82;2.05;;;;;;;;;;5004489;28;20231;-73
2022/07/18 14:32:30;;;;;;;8.18;2.28;;;;;;;;;;5013181;28;20219;-71
2022/07/18 14:34:57;;;;;;;8.98;1.75;;;;;;;;;;5014205;28;20209;-74
2022/07/18 14:37:25;;;;;;;7.68;1.70;;;;;;;;;;4999393;28;20200;-74
2022/07/18 14:39:52;;;;;;;7.90;1.90;;;;;;;;;;5013243;28;20311;-74
2022/07/18 14:42:20;;;;;;;8.00;1.65;;;;;;;;;;5014026;28;20232;-74
2022/07/18 14:44:47;;;;;;;8.60;1.70;;;16.20;16.40;;;;;;5013606;28;20208;-74
2022/07/18 14:47:14;;;;;;;7.88;1.90;;;;;;;;;;5009386;28;20205;-74
2022/07/18 14:49:41;;;;;;;8.20;2.05;;;;;;;;;;5004118;28;20205;-74